RCL15 EGLC-EGPH
Flight info
| Callsign | RCL15 |
|---|---|
| Flight time | 0h 54m |
| Altitude | 24000 |
| Route | BPK N601 PIPIN/N0461F320 UN601 RIBEL DCT INPIP |
| Aircraft | A319/M-SDFGHIRWXYZ/LB1 |
Departure
| Time | 2026-04-26 12:04 |
|---|---|
| Airport | London City Airport (EGLC) |
Arrival
| Time | 2026-04-26 12:58 |
|---|---|
| Airport | Edinburgh Airport (EGPH) |
| Time | Latitude | Longitude | Altitude | Speed | Heading |
|---|---|---|---|---|---|
| 2026-04-26 11:51 | 51.50409 | 0.05126 | 26 ft | 0 kts | 329° |
| 2026-04-26 11:59 | 51.50410 | 0.05126 | 25 ft | 2 kts | 330° |
| 2026-04-26 11:59 | 51.50426 | 0.05136 | 28 ft | 5 kts | 10° |
| 2026-04-26 12:00 | 51.50456 | 0.05064 | 25 ft | 13 kts | 282° |
| 2026-04-26 12:00 | 51.50466 | 0.04889 | 25 ft | 18 kts | 272° |
| 2026-04-26 12:00 | 51.50471 | 0.04670 | 25 ft | 22 kts | 272° |
| 2026-04-26 12:00 | 51.50482 | 0.04469 | 25 ft | 11 kts | 290° |
| 2026-04-26 12:01 | 51.50491 | 0.04454 | 29 ft | 0 kts | 323° |
| 2026-04-26 12:02 | 51.50504 | 0.04443 | 30 ft | 4 kts | 335° |
| 2026-04-26 12:02 | 51.50543 | 0.04441 | 25 ft | 7 kts | 6° |
| 2026-04-26 12:02 | 51.50553 | 0.04462 | 29 ft | 4 kts | 62° |
| 2026-04-26 12:03 | 51.50556 | 0.04507 | 26 ft | 1 kts | 95° |
| 2026-04-26 12:03 | 51.50556 | 0.04508 | 26 ft | 0 kts | 94° |
| 2026-04-26 12:04 | 51.50556 | 0.04514 | 26 ft | 10 kts | 94° |
| 2026-04-26 12:04 | 51.50535 | 0.05158 | 26 ft | 104 kts | 92° |
| 2026-04-26 12:04 | 51.50489 | 0.06660 | 326 ft | 144 kts | 94° |
| 2026-04-26 12:04 | 51.50432 | 0.08275 | 1197 ft | 143 kts | 95° |
| 2026-04-26 12:05 | 51.50413 | 0.09881 | 1777 ft | 150 kts | 84° |
| 2026-04-26 12:05 | 51.50949 | 0.11458 | 2119 ft | 179 kts | 44° |
| 2026-04-26 12:05 | 51.52159 | 0.12229 | 2457 ft | 206 kts | 0° |
| 2026-04-26 12:05 | 51.53331 | 0.11614 | 2946 ft | 214 kts | 329° |
| 2026-04-26 12:06 | 51.54588 | 0.10302 | 3047 ft | 214 kts | 325° |
| 2026-04-26 12:06 | 51.55805 | 0.08934 | 3016 ft | 212 kts | 324° |
| 2026-04-26 12:06 | 51.57006 | 0.07557 | 3012 ft | 212 kts | 324° |
| 2026-04-26 12:06 | 51.58198 | 0.06194 | 3002 ft | 213 kts | 324° |
| 2026-04-26 12:07 | 51.59519 | 0.04792 | 3016 ft | 248 kts | 327° |
| 2026-04-26 12:07 | 51.61034 | 0.03258 | 3010 ft | 261 kts | 328° |
| 2026-04-26 12:07 | 51.62597 | 0.01704 | 3003 ft | 263 kts | 328° |
| 2026-04-26 12:07 | 51.64160 | 0.00154 | 2996 ft | 263 kts | 328° |
| 2026-04-26 12:08 | 51.65704 | -0.01380 | 3002 ft | 264 kts | 328° |
| 2026-04-26 12:08 | 51.67265 | -0.02936 | 3020 ft | 263 kts | 328° |
| 2026-04-26 12:08 | 51.68833 | -0.04504 | 3033 ft | 266 kts | 329° |
| 2026-04-26 12:08 | 51.70396 | -0.06071 | 3028 ft | 262 kts | 328° |
| 2026-04-26 12:09 | 51.71937 | -0.07620 | 3024 ft | 264 kts | 328° |
| 2026-04-26 12:09 | 51.73503 | -0.09191 | 3027 ft | 263 kts | 328° |
| 2026-04-26 12:09 | 51.75064 | -0.10759 | 3028 ft | 264 kts | 328° |
| 2026-04-26 12:09 | 51.76654 | -0.12312 | 3369 ft | 273 kts | 329° |
| 2026-04-26 12:10 | 51.78288 | -0.13862 | 4558 ft | 270 kts | 330° |
| 2026-04-26 12:10 | 51.79907 | -0.15386 | 5629 ft | 274 kts | 330° |
| 2026-04-26 12:10 | 51.81567 | -0.16948 | 6705 ft | 275 kts | 329° |
| 2026-04-26 12:10 | 51.83209 | -0.18500 | 7641 ft | 277 kts | 329° |
| 2026-04-26 12:11 | 51.84884 | -0.20090 | 8608 ft | 281 kts | 328° |
| 2026-04-26 12:11 | 51.86582 | -0.21707 | 9554 ft | 284 kts | 328° |
| 2026-04-26 12:11 | 51.88304 | -0.23353 | 10459 ft | 289 kts | 328° |
| 2026-04-26 12:11 | 51.90096 | -0.25071 | 10874 ft | 311 kts | 328° |
| 2026-04-26 12:12 | 51.92038 | -0.26936 | 11137 ft | 335 kts | 328° |
| 2026-04-26 12:12 | 51.94087 | -0.28901 | 11324 ft | 358 kts | 328° |
| 2026-04-26 12:12 | 51.96289 | -0.31012 | 11632 ft | 374 kts | 328° |
| 2026-04-26 12:12 | 51.97820 | -0.32477 | 12032 ft | 378 kts | 328° |
| 2026-04-26 12:13 | 52.00849 | -0.35373 | 12935 ft | 384 kts | 328° |
| 2026-04-26 12:13 | 52.03166 | -0.37598 | 13644 ft | 388 kts | 328° |
| 2026-04-26 12:13 | 52.05506 | -0.39855 | 14306 ft | 392 kts | 328° |
| 2026-04-26 12:13 | 52.07828 | -0.42104 | 14932 ft | 395 kts | 327° |
| 2026-04-26 12:14 | 52.10211 | -0.44410 | 15559 ft | 399 kts | 327° |
| 2026-04-26 12:14 | 52.12607 | -0.46726 | 16179 ft | 402 kts | 327° |
| 2026-04-26 12:14 | 52.15030 | -0.49068 | 16804 ft | 406 kts | 327° |
| 2026-04-26 12:14 | 52.17469 | -0.51432 | 17411 ft | 409 kts | 327° |
| 2026-04-26 12:15 | 52.19903 | -0.53795 | 18024 ft | 413 kts | 327° |
| 2026-04-26 12:15 | 52.22381 | -0.56202 | 18602 ft | 416 kts | 327° |
| 2026-04-26 12:15 | 52.24882 | -0.58637 | 19114 ft | 419 kts | 327° |
| 2026-04-26 12:15 | 52.27401 | -0.61096 | 19614 ft | 422 kts | 327° |
| 2026-04-26 12:16 | 52.29937 | -0.63568 | 20131 ft | 424 kts | 327° |
| 2026-04-26 12:16 | 52.32450 | -0.66023 | 20631 ft | 426 kts | 327° |
| 2026-04-26 12:16 | 52.35004 | -0.68524 | 21113 ft | 429 kts | 327° |
| 2026-04-26 12:16 | 52.37568 | -0.71040 | 21585 ft | 431 kts | 327° |
| 2026-04-26 12:17 | 52.40149 | -0.73575 | 22025 ft | 434 kts | 327° |
| 2026-04-26 12:17 | 52.42748 | -0.76128 | 22452 ft | 436 kts | 327° |
| 2026-04-26 12:17 | 52.45355 | -0.78693 | 22875 ft | 438 kts | 327° |
| 2026-04-26 12:17 | 52.47977 | -0.81281 | 23292 ft | 440 kts | 327° |
| 2026-04-26 12:18 | 52.50617 | -0.83889 | 23689 ft | 443 kts | 327° |
| 2026-04-26 12:18 | 52.53235 | -0.86473 | 24051 ft | 445 kts | 327° |
| 2026-04-26 12:18 | 52.55898 | -0.89107 | 24263 ft | 446 kts | 327° |
| 2026-04-26 12:18 | 52.58569 | -0.91755 | 24323 ft | 452 kts | 327° |
| 2026-04-26 12:19 | 52.61287 | -0.94454 | 24322 ft | 460 kts | 327° |
| 2026-04-26 12:19 | 52.64047 | -0.97193 | 24430 ft | 465 kts | 327° |
| 2026-04-26 12:19 | 52.66834 | -0.99962 | 24580 ft | 469 kts | 327° |
| 2026-04-26 12:19 | 52.69600 | -1.02715 | 24892 ft | 470 kts | 327° |
| 2026-04-26 12:20 | 52.72400 | -1.05506 | 25239 ft | 469 kts | 326° |
| 2026-04-26 12:20 | 52.75199 | -1.08302 | 25606 ft | 467 kts | 326° |
| 2026-04-26 12:20 | 52.77986 | -1.11088 | 25991 ft | 466 kts | 326° |
| 2026-04-26 12:20 | 52.80754 | -1.13861 | 26396 ft | 464 kts | 326° |
| 2026-04-26 12:21 | 52.83476 | -1.16598 | 26807 ft | 463 kts | 326° |
| 2026-04-26 12:21 | 52.86227 | -1.19369 | 27242 ft | 461 kts | 326° |
| 2026-04-26 12:21 | 52.88960 | -1.22125 | 27682 ft | 459 kts | 325° |
| 2026-04-26 12:21 | 52.91685 | -1.24876 | 28119 ft | 457 kts | 325° |
| 2026-04-26 12:22 | 52.94398 | -1.27619 | 28572 ft | 456 kts | 325° |
| 2026-04-26 12:22 | 52.97103 | -1.30355 | 29039 ft | 454 kts | 325° |
| 2026-04-26 12:22 | 52.99803 | -1.33088 | 29517 ft | 452 kts | 325° |
| 2026-04-26 12:22 | 53.02450 | -1.35775 | 30006 ft | 450 kts | 325° |
| 2026-04-26 12:23 | 53.05121 | -1.38494 | 30490 ft | 449 kts | 324° |
| 2026-04-26 12:23 | 53.07780 | -1.41201 | 30924 ft | 447 kts | 324° |
| 2026-04-26 12:23 | 53.10431 | -1.43904 | 31360 ft | 445 kts | 324° |
| 2026-04-26 12:23 | 53.13069 | -1.46600 | 31791 ft | 443 kts | 324° |
| 2026-04-26 12:24 | 53.15660 | -1.49254 | 32190 ft | 442 kts | 324° |
| 2026-04-26 12:24 | 53.18287 | -1.51948 | 32318 ft | 441 kts | 324° |
| 2026-04-26 12:24 | 53.20902 | -1.54625 | 32324 ft | 440 kts | 324° |
| 2026-04-26 12:25 | 53.28732 | -1.62667 | 32325 ft | 440 kts | 324° |
| 2026-04-26 12:25 | 53.33923 | -1.68017 | 32324 ft | 439 kts | 324° |
| 2026-04-26 12:26 | 53.39043 | -1.73300 | 32322 ft | 424 kts | 324° |
| 2026-04-26 12:26 | 53.44001 | -1.78456 | 32324 ft | 420 kts | 324° |
| 2026-04-26 12:27 | 53.48968 | -1.83643 | 32322 ft | 419 kts | 324° |
| 2026-04-26 12:27 | 53.53936 | -1.88826 | 32313 ft | 419 kts | 324° |
| 2026-04-26 12:28 | 53.58878 | -1.93994 | 32314 ft | 419 kts | 324° |
| 2026-04-26 12:28 | 53.63805 | -1.99153 | 32318 ft | 419 kts | 324° |
| 2026-04-26 12:29 | 53.68753 | -2.04368 | 32318 ft | 419 kts | 323° |
| 2026-04-26 12:30 | 53.76388 | -2.11707 | 32318 ft | 425 kts | 333° |
| 2026-04-26 12:30 | 53.81888 | -2.15434 | 32317 ft | 425 kts | 333° |
| 2026-04-26 12:31 | 53.90076 | -2.21032 | 32317 ft | 425 kts | 333° |
| 2026-04-26 12:31 | 53.95569 | -2.24805 | 32312 ft | 425 kts | 333° |
| 2026-04-26 12:32 | 54.01027 | -2.28561 | 32315 ft | 425 kts | 333° |
| 2026-04-26 12:33 | 54.09263 | -2.34243 | 32310 ft | 425 kts | 333° |
| 2026-04-26 12:33 | 54.14739 | -2.38036 | 32308 ft | 425 kts | 333° |
| 2026-04-26 12:34 | 54.20196 | -2.41830 | 32303 ft | 425 kts | 332° |
| 2026-04-26 12:34 | 54.25679 | -2.45644 | 32304 ft | 425 kts | 332° |
| 2026-04-26 12:35 | 54.31158 | -2.49466 | 32300 ft | 425 kts | 332° |
| 2026-04-26 12:35 | 54.36645 | -2.53324 | 32297 ft | 425 kts | 332° |
| 2026-04-26 12:36 | 54.42083 | -2.57147 | 32299 ft | 425 kts | 332° |
| 2026-04-26 12:36 | 54.47561 | -2.61002 | 32293 ft | 425 kts | 332° |
| 2026-04-26 12:37 | 54.53041 | -2.64870 | 32297 ft | 425 kts | 332° |
| 2026-04-26 12:37 | 54.58535 | -2.68766 | 32289 ft | 425 kts | 332° |
| 2026-04-26 12:38 | 54.63972 | -2.72632 | 32294 ft | 426 kts | 332° |
| 2026-04-26 12:38 | 54.69449 | -2.76539 | 32279 ft | 426 kts | 332° |
| 2026-04-26 12:39 | 54.74938 | -2.80474 | 32171 ft | 428 kts | 332° |
| 2026-04-26 12:39 | 54.77720 | -2.82470 | 31155 ft | 437 kts | 332° |
| 2026-04-26 12:39 | 54.79584 | -2.83807 | 30758 ft | 437 kts | 333° |
| 2026-04-26 12:39 | 54.83274 | -2.86450 | 30361 ft | 425 kts | 333° |
| 2026-04-26 12:40 | 54.86003 | -2.88398 | 30219 ft | 412 kts | 333° |
| 2026-04-26 12:40 | 54.87745 | -2.89641 | 30118 ft | 404 kts | 332° |
| 2026-04-26 12:40 | 54.91130 | -2.92070 | 29882 ft | 390 kts | 332° |
| 2026-04-26 12:40 | 54.92780 | -2.93263 | 29655 ft | 387 kts | 332° |
| 2026-04-26 12:41 | 54.95257 | -2.95060 | 29259 ft | 383 kts | 332° |
| 2026-04-26 12:41 | 54.97711 | -2.96849 | 28829 ft | 380 kts | 332° |
| 2026-04-26 12:41 | 55.00146 | -2.98624 | 28172 ft | 376 kts | 332° |
| 2026-04-26 12:41 | 55.02556 | -3.00385 | 27519 ft | 373 kts | 332° |
| 2026-04-26 12:42 | 55.05715 | -3.02694 | 26671 ft | 369 kts | 333° |
| 2026-04-26 12:42 | 55.07302 | -3.03850 | 26183 ft | 366 kts | 333° |
| 2026-04-26 12:42 | 55.09688 | -3.05599 | 24706 ft | 386 kts | 333° |
| 2026-04-26 12:42 | 55.12230 | -3.07471 | 23127 ft | 403 kts | 334° |
| 2026-04-26 12:43 | 55.14855 | -3.09396 | 21522 ft | 412 kts | 334° |
| 2026-04-26 12:43 | 55.17534 | -3.11352 | 19864 ft | 419 kts | 334° |
| 2026-04-26 12:43 | 55.20316 | -3.13383 | 18219 ft | 424 kts | 335° |
| 2026-04-26 12:43 | 55.22935 | -3.15300 | 16805 ft | 421 kts | 334° |
| 2026-04-26 12:44 | 55.25620 | -3.17269 | 15567 ft | 415 kts | 334° |
| 2026-04-26 12:44 | 55.28226 | -3.19179 | 15118 ft | 392 kts | 334° |
| 2026-04-26 12:44 | 55.30660 | -3.20961 | 14867 ft | 364 kts | 334° |
| 2026-04-26 12:44 | 55.32922 | -3.22622 | 14620 ft | 342 kts | 334° |
| 2026-04-26 12:45 | 55.35033 | -3.24177 | 14385 ft | 323 kts | 333° |
| 2026-04-26 12:45 | 55.37055 | -3.25677 | 14151 ft | 308 kts | 333° |
| 2026-04-26 12:45 | 55.38989 | -3.27114 | 13886 ft | 294 kts | 333° |
| 2026-04-26 12:45 | 55.40846 | -3.28490 | 13618 ft | 282 kts | 333° |
| 2026-04-26 12:46 | 55.42628 | -3.29817 | 13350 ft | 273 kts | 333° |
| 2026-04-26 12:46 | 55.44331 | -3.31090 | 13088 ft | 264 kts | 332° |
| 2026-04-26 12:46 | 55.46005 | -3.32340 | 12820 ft | 256 kts | 332° |
| 2026-04-26 12:46 | 55.47676 | -3.33596 | 12575 ft | 280 kts | 332° |
| 2026-04-26 12:47 | 55.49509 | -3.35068 | 12188 ft | 293 kts | 327° |
| 2026-04-26 12:47 | 55.51184 | -3.37100 | 11776 ft | 291 kts | 316° |
| 2026-04-26 12:47 | 55.52762 | -3.39369 | 11344 ft | 294 kts | 317° |
| 2026-04-26 12:47 | 55.54353 | -3.41660 | 11014 ft | 293 kts | 316° |
| 2026-04-26 12:48 | 55.55939 | -3.43949 | 10591 ft | 294 kts | 316° |
| 2026-04-26 12:48 | 55.57512 | -3.46221 | 10303 ft | 290 kts | 316° |
| 2026-04-26 12:48 | 55.59067 | -3.48471 | 9878 ft | 284 kts | 316° |
| 2026-04-26 12:48 | 55.60561 | -3.50636 | 9610 ft | 270 kts | 316° |
| 2026-04-26 12:49 | 55.61955 | -3.52650 | 9546 ft | 253 kts | 316° |
| 2026-04-26 12:49 | 55.63282 | -3.54568 | 9460 ft | 238 kts | 316° |
| 2026-04-26 12:49 | 55.64541 | -3.56408 | 9325 ft | 233 kts | 314° |
| 2026-04-26 12:49 | 55.65740 | -3.58294 | 8981 ft | 229 kts | 313° |
| 2026-04-26 12:50 | 55.66912 | -3.60203 | 8667 ft | 227 kts | 313° |
| 2026-04-26 12:50 | 55.68074 | -3.62108 | 8359 ft | 226 kts | 313° |
| 2026-04-26 12:50 | 55.69233 | -3.63991 | 8064 ft | 226 kts | 314° |
| 2026-04-26 12:50 | 55.70427 | -3.65797 | 7765 ft | 225 kts | 316° |
| 2026-04-26 12:51 | 55.71623 | -3.67533 | 7470 ft | 224 kts | 317° |
| 2026-04-26 12:51 | 55.72836 | -3.69280 | 7176 ft | 223 kts | 317° |
| 2026-04-26 12:51 | 55.74043 | -3.71019 | 6876 ft | 222 kts | 317° |
| 2026-04-26 12:51 | 55.75243 | -3.72753 | 6571 ft | 221 kts | 317° |
| 2026-04-26 12:52 | 55.76395 | -3.74590 | 6095 ft | 224 kts | 313° |
| 2026-04-26 12:52 | 55.77495 | -3.76534 | 5725 ft | 227 kts | 313° |
| 2026-04-26 12:52 | 55.78837 | -3.77969 | 5432 ft | 229 kts | 344° |
| 2026-04-26 12:52 | 55.80403 | -3.77812 | 5166 ft | 229 kts | 20° |
| 2026-04-26 12:53 | 55.81649 | -3.76129 | 4890 ft | 227 kts | 51° |
| 2026-04-26 12:53 | 55.82501 | -3.73802 | 4641 ft | 223 kts | 59° |
| 2026-04-26 12:53 | 55.83314 | -3.71437 | 4301 ft | 224 kts | 59° |
| 2026-04-26 12:53 | 55.84112 | -3.69122 | 4078 ft | 215 kts | 59° |
| 2026-04-26 12:54 | 55.84867 | -3.66926 | 3824 ft | 207 kts | 59° |
| 2026-04-26 12:54 | 55.85610 | -3.64764 | 3554 ft | 203 kts | 59° |
| 2026-04-26 12:54 | 55.86343 | -3.62626 | 3277 ft | 201 kts | 59° |
| 2026-04-26 12:54 | 55.87071 | -3.60502 | 3005 ft | 199 kts | 59° |
| 2026-04-26 12:55 | 55.87790 | -3.58402 | 2745 ft | 198 kts | 59° |
| 2026-04-26 12:55 | 55.88503 | -3.56319 | 2467 ft | 195 kts | 59° |
| 2026-04-26 12:55 | 55.89207 | -3.54256 | 2225 ft | 193 kts | 59° |
| 2026-04-26 12:55 | 55.89887 | -3.52268 | 1938 ft | 185 kts | 59° |
| 2026-04-26 12:56 | 55.90520 | -3.50415 | 1700 ft | 163 kts | 59° |
| 2026-04-26 12:56 | 55.91076 | -3.48786 | 1488 ft | 146 kts | 59° |
| 2026-04-26 12:56 | 55.91585 | -3.47290 | 1294 ft | 137 kts | 59° |
| 2026-04-26 12:56 | 55.92074 | -3.45855 | 1107 ft | 134 kts | 58° |
| 2026-04-26 12:57 | 55.92546 | -3.44469 | 924 ft | 131 kts | 58° |
| 2026-04-26 12:57 | 55.93024 | -3.43078 | 732 ft | 130 kts | 58° |
| 2026-04-26 12:57 | 55.93487 | -3.41693 | 568 ft | 130 kts | 58° |
| 2026-04-26 12:58 | 55.94414 | -3.38967 | 177 ft | 128 kts | 57° |
| 2026-04-26 12:58 | 55.94842 | -3.37713 | 119 ft | 108 kts | 59° |
| 2026-04-26 12:58 | 55.95164 | -3.36768 | 115 ft | 65 kts | 58° |
| 2026-04-26 12:58 | 55.95241 | -3.36407 | 106 ft | 20 kts | 139° |
| 2026-04-26 12:59 | 55.95173 | -3.36328 | 109 ft | 1 kts | 147° |
| 2026-04-26 12:59 | 55.95155 | -3.36299 | 96 ft | 8 kts | 129° |
| 2026-04-26 12:59 | 55.95121 | -3.36138 | 109 ft | 18 kts | 108° |
| 2026-04-26 12:59 | 55.95114 | -3.36103 | 109 ft | 0 kts | 108° |
| 2026-04-26 13:00 | 55.95109 | -3.36078 | 108 ft | 6 kts | 109° |
| 2026-04-26 13:01 | 55.95088 | -3.35970 | 109 ft | 13 kts | 114° |
| 2026-04-26 13:01 | 55.95016 | -3.35838 | 108 ft | 18 kts | 178° |
| 2026-04-26 13:01 | 55.94907 | -3.35778 | 108 ft | 15 kts | 114° |
| 2026-04-26 13:01 | 55.94855 | -3.35708 | 107 ft | 6 kts | 199° |
| 2026-04-26 13:02 | 55.94811 | -3.35749 | 108 ft | 2 kts | 208° |